createdAt,value
2023-02-13T00:02:59.211Z,47.49
2023-02-13T00:08:05.800Z,26.78
2023-02-13T00:13:11.971Z,26.78
2023-02-13T00:18:18.959Z,35.71
2023-02-13T00:23:25.160Z,26.07
2023-02-13T00:28:32.571Z,25.35
2023-02-13T00:33:38.676Z,21.78
2023-02-13T00:38:45.054Z,22.50
2023-02-13T00:43:51.282Z,31.07
2023-02-13T00:48:57.774Z,32.14
2023-02-13T00:54:04.014Z,22.14
2023-02-13T00:59:10.453Z,23.93
2023-02-13T01:04:16.941Z,22.85
2023-02-13T01:09:23.346Z,40.00
2023-02-13T01:14:29.477Z,21.07
2023-02-13T01:19:35.962Z,32.50
2023-02-13T01:24:42.049Z,25.00
2023-02-13T01:29:50.659Z,21.07
2023-02-13T01:34:56.812Z,29.28
2023-02-13T01:40:03.219Z,23.57
2023-02-13T01:45:09.454Z,33.57
2023-02-13T01:50:16.754Z,30.00
2023-02-13T01:55:22.914Z,32.50
2023-02-13T02:00:29.236Z,21.07
2023-02-13T02:05:35.438Z,21.07
2023-02-13T02:10:43.626Z,38.21
2023-02-13T02:15:50.944Z,28.57
2023-02-13T02:20:57.735Z,28.93
2023-02-13T02:26:03.360Z,32.14
2023-02-13T02:31:09.749Z,22.14
2023-02-13T02:36:15.882Z,34.64
2023-02-13T02:41:23.589Z,25.00
2023-02-13T02:46:29.714Z,30.35
2023-02-13T02:51:37.711Z,22.50
2023-02-13T02:56:44.008Z,35.00
2023-02-13T03:01:50.513Z,27.14
2023-02-13T03:06:56.613Z,43.57
2023-02-13T03:12:03.210Z,36.78
2023-02-13T03:17:09.627Z,35.71
2023-02-13T03:22:15.992Z,22.14
2023-02-13T03:27:23.366Z,39.64
2023-02-13T03:32:30.121Z,41.07
2023-02-13T03:37:38.384Z,23.57
2023-02-13T03:42:44.827Z,31.07
2023-02-13T03:47:50.938Z,30.35
2023-02-13T03:52:57.843Z,33.21
2023-02-13T03:58:03.808Z,33.57
2023-02-13T04:03:10.265Z,22.50
2023-02-13T04:08:16.316Z,33.57
2023-02-13T04:13:22.978Z,32.85
2023-02-13T04:18:29.322Z,26.78
2023-02-13T04:23:37.130Z,30.71
2023-02-13T04:28:43.068Z,28.57
2023-02-13T04:33:49.458Z,37.85
2023-02-13T04:38:55.662Z,30.00
2023-02-13T04:44:02.313Z,35.35
2023-02-13T04:49:11.454Z,24.28
2023-02-13T04:54:19.344Z,22.14
2023-02-13T04:59:25.671Z,23.21
2023-02-13T05:04:32.725Z,43.57
2023-02-13T05:09:41.238Z,35.71
2023-02-13T05:14:44.875Z,35.00
2023-02-13T05:19:51.184Z,25.00
2023-02-13T05:24:59.075Z,27.14
2023-02-13T05:30:05.187Z,27.85
2023-02-13T05:35:11.651Z,32.50
2023-02-13T05:40:17.593Z,21.07
2023-02-13T05:45:26.267Z,22.85
2023-02-13T05:50:50.535Z,21.78
2023-02-13T05:55:37.027Z,32.14
2023-02-13T06:00:43.153Z,39.28
2023-02-13T06:05:50.633Z,39.28
2023-02-13T06:10:59.528Z,28.57
2023-02-13T06:16:04.874Z,36.42
2023-02-13T06:21:10.783Z,21.07
2023-02-13T06:26:17.422Z,20.72
2023-02-13T06:31:24.797Z,22.85
2023-02-13T06:36:31.594Z,23.21
2023-02-13T06:41:37.951Z,32.50
2023-02-13T06:46:44.238Z,31.07
2023-02-13T06:51:51.253Z,32.85
2023-02-13T06:56:57.891Z,42.85
2023-02-13T07:02:04.294Z,34.64
2023-02-13T07:07:11.176Z,35.71
2023-02-13T07:12:17.213Z,32.14
2023-02-13T07:17:23.453Z,36.07
2023-02-13T07:22:30.928Z,40.00
2023-02-13T07:27:38.092Z,21.07
2023-02-13T07:32:44.050Z,22.50
2023-02-13T07:37:50.715Z,54.99
2023-02-13T07:42:57.846Z,33.21
2023-02-13T07:48:04.900Z,25.00
2023-02-13T07:53:11.575Z,24.28
2023-02-13T07:58:17.918Z,31.43
2023-02-13T08:03:25.164Z,32.50
2023-02-13T08:08:31.893Z,21.07
2023-02-13T08:13:37.978Z,22.14
2023-02-13T08:18:44.772Z,35.00
2023-02-13T08:23:51.788Z,21.78
2023-02-13T08:28:58.070Z,23.21
2023-02-13T08:34:04.172Z,27.14
2023-02-13T08:39:10.346Z,32.50
2023-02-13T08:44:16.641Z,41.78
2023-02-13T08:49:24.204Z,28.57
2023-02-13T08:54:30.409Z,35.00
2023-02-13T08:59:37.010Z,38.92
2023-02-13T09:04:43.243Z,21.07
2023-02-13T09:09:49.703Z,17.50
2023-02-13T09:14:55.839Z,22.14
2023-02-13T09:20:02.119Z,26.43
2023-02-13T09:25:08.149Z,19.64
2023-02-13T09:30:14.850Z,21.78
2023-02-13T09:35:21.018Z,20.00
2023-02-13T09:40:28.058Z,21.07
2023-02-13T09:45:34.103Z,27.14
2023-02-13T09:50:42.601Z,31.78
2023-02-13T09:55:48.650Z,21.07
2023-02-13T10:00:55.597Z,21.78
2023-02-13T10:06:02.973Z,22.50
2023-02-13T10:11:09.098Z,21.43
2023-02-13T10:16:15.130Z,31.07
2023-02-13T10:21:21.902Z,17.50
2023-02-13T10:26:27.869Z,20.35
2023-02-13T10:31:35.646Z,0.00
2023-02-13T10:36:43.140Z,15.71
2023-02-13T10:41:54.813Z,20.00
2023-02-13T10:46:50.875Z,18.93
2023-02-13T10:51:57.062Z,11.43
2023-02-13T10:57:07.216Z,2.14
2023-02-13T11:02:04.036Z,20.00
2023-02-13T11:07:12.536Z,13.21
2023-02-13T11:12:21.631Z,14.28
2023-02-13T11:17:28.377Z,0.36
2023-02-13T11:22:34.149Z,2.86
2023-02-13T11:27:41.859Z,12.50
2023-02-13T11:32:47.922Z,15.71
2023-02-13T11:37:54.141Z,20.35
2023-02-13T11:43:00.555Z,6.78
2023-02-13T11:48:06.612Z,7.14
2023-02-13T11:53:13.190Z,2.50
2023-02-13T11:58:19.195Z,3.21
2023-02-13T12:03:27.152Z,15.36
2023-02-13T12:08:33.991Z,0.00
2023-02-13T12:13:41.570Z,7.86
2023-02-13T12:18:47.738Z,2.86
2023-02-13T12:23:55.008Z,0.00
2023-02-13T12:29:01.341Z,9.64
2023-02-13T12:34:10.399Z,3.27
2023-02-13T12:39:17.592Z,4.64
2023-02-13T12:44:24.076Z,0.00
2023-02-13T12:49:30.494Z,2.14
2023-02-13T12:54:37.243Z,10.36
2023-02-13T12:59:43.397Z,10.53
2023-02-13T13:04:49.987Z,0.00
2023-02-13T13:09:56.229Z,6.07
2023-02-13T13:15:02.826Z,12.86
2023-02-13T13:20:08.955Z,5.00
2023-02-13T13:25:16.130Z,0.71
2023-02-13T13:30:22.407Z,0.00
2023-02-13T13:35:28.908Z,6.78
2023-02-13T13:40:36.070Z,8.93
2023-02-13T13:45:42.820Z,14.17
2023-02-13T13:50:48.958Z,2.86
2023-02-13T13:55:55.885Z,1.09
2023-02-13T14:01:02.209Z,16.43
2023-02-13T14:06:09.085Z,4.64
2023-02-13T14:11:15.609Z,4.72
2023-02-13T14:16:24.119Z,0.36
2023-02-13T14:21:51.134Z,0.00
2023-02-13T14:26:38.312Z,1.79
2023-02-13T14:31:44.514Z,1.50
2023-02-13T14:36:52.118Z,13.44
2023-02-13T14:41:58.249Z,4.00
2023-02-13T14:47:04.862Z,1.43
2023-02-13T14:52:11.116Z,1.79
2023-02-13T14:57:17.678Z,0.36
2023-02-13T15:02:23.999Z,0.00
2023-02-13T15:07:31.349Z,1.45
2023-02-13T15:12:37.479Z,2.54
2023-02-13T15:17:44.195Z,1.45
2023-02-13T15:22:51.681Z,0.00
2023-02-13T15:27:59.465Z,1.85
2023-02-13T15:33:05.740Z,0.00
2023-02-13T15:38:12.004Z,2.86
2023-02-13T15:43:20.341Z,5.00
2023-02-13T15:48:27.069Z,5.36
2023-02-13T15:53:34.192Z,1.09
2023-02-13T15:58:40.923Z,5.36
2023-02-13T16:03:47.033Z,0.71
2023-02-13T16:08:54.042Z,6.78
2023-02-13T16:14:00.148Z,18.57
2023-02-13T16:19:06.653Z,1.43
2023-02-13T16:24:14.945Z,12.86
2023-02-13T16:29:21.688Z,5.36
2023-02-13T16:34:27.804Z,4.29
2023-02-13T16:39:34.077Z,9.64
2023-02-13T16:44:40.413Z,2.86
2023-02-13T16:49:46.716Z,12.14
2023-02-13T16:54:52.861Z,20.71
2023-02-13T17:00:00.382Z,1.79
2023-02-13T17:05:07.569Z,18.57
2023-02-13T17:10:13.609Z,10.71
2023-02-13T17:15:20.110Z,0.00
2023-02-13T17:20:28.333Z,7.50
2023-02-13T17:25:34.406Z,16.43
2023-02-13T17:30:41.229Z,11.78
2023-02-13T17:35:47.265Z,20.71
2023-02-13T17:40:53.928Z,20.71
2023-02-13T17:46:01.231Z,18.93
2023-02-13T17:51:06.495Z,11.78
2023-02-13T17:56:12.732Z,13.93
2023-02-13T18:01:19.661Z,23.57
2023-02-13T18:06:25.839Z,10.71
2023-02-13T18:11:33.442Z,23.57
2023-02-13T18:16:39.562Z,21.78
2023-02-13T18:21:45.942Z,20.00
2023-02-13T18:26:52.002Z,23.93
2023-02-13T18:31:58.641Z,18.57
2023-02-13T18:37:04.703Z,24.28
2023-02-13T18:42:12.343Z,21.78
2023-02-13T18:47:18.810Z,21.07
2023-02-13T18:52:25.868Z,20.35
2023-02-13T18:57:32.055Z,21.07
2023-02-13T19:02:39.058Z,29.64
2023-02-13T19:07:45.357Z,26.07
2023-02-13T19:12:51.743Z,38.57
2023-02-13T19:17:57.766Z,25.00
2023-02-13T19:23:04.477Z,32.85
2023-02-13T19:28:10.725Z,21.07
2023-02-13T19:33:19.146Z,33.21
2023-02-13T19:38:25.687Z,21.78
2023-02-13T19:43:32.014Z,25.00
2023-02-13T19:48:38.177Z,18.57
2023-02-13T19:53:44.635Z,33.57
2023-02-13T19:58:50.759Z,28.57
2023-02-13T20:04:00.337Z,32.85
2023-02-13T20:09:07.380Z,20.00
2023-02-13T20:14:14.162Z,24.64
2023-02-13T20:19:21.133Z,36.42
2023-02-13T20:24:27.612Z,23.21
2023-02-13T20:29:34.420Z,23.21
2023-02-13T20:34:58.415Z,36.42
2023-02-13T20:39:45.330Z,22.14
2023-02-13T20:44:54.946Z,21.43
2023-02-13T20:50:01.291Z,22.14
2023-02-13T20:55:09.655Z,35.35
2023-02-13T21:00:15.823Z,23.93
2023-02-13T21:05:22.162Z,40.71
2023-02-13T21:10:29.433Z,20.00
2023-02-13T21:15:36.071Z,31.78
2023-02-13T21:20:42.167Z,21.43
2023-02-13T21:25:51.503Z,38.92
2023-02-13T21:30:56.958Z,30.00
2023-02-13T21:36:04.510Z,40.00
2023-02-13T21:41:13.290Z,23.57
2023-02-13T21:46:20.019Z,42.85
2023-02-13T21:51:26.071Z,54.28
2023-02-13T21:56:32.441Z,50.35
2023-02-13T22:01:38.581Z,33.57
2023-02-13T22:06:44.974Z,27.85
2023-02-13T22:11:52.072Z,29.28
2023-02-13T22:16:57.781Z,46.07
2023-02-13T22:22:04.098Z,40.35
2023-02-13T22:27:10.984Z,25.71
2023-02-13T22:32:17.360Z,37.50
2023-02-13T22:37:24.599Z,43.57
2023-02-13T22:42:31.949Z,41.07
2023-02-13T22:47:39.604Z,37.50
2023-02-13T22:52:46.120Z,26.43
2023-02-13T22:57:53.588Z,38.21
2023-02-13T23:03:00.854Z,43.21
2023-02-13T23:08:07.384Z,31.78
2023-02-13T23:13:13.684Z,33.57
2023-02-13T23:18:20.308Z,39.28
2023-02-13T23:23:26.524Z,42.50
2023-02-13T23:28:33.590Z,29.28
2023-02-13T23:33:40.887Z,38.21
2023-02-13T23:38:47.855Z,42.14
2023-02-13T23:43:53.496Z,38.92
2023-02-13T23:49:01.814Z,41.78
2023-02-13T23:54:07.968Z,36.42
2023-02-13T23:59:15.313Z,37.14
